Time;durP1;ratioP1;P1;durP2;ratioP2;P2;SDS_P1;SDS_P2;PMS_P1;PMS_P2;Temp;Humidity;BMP_temperature;BMP_pressure;BME280_temperature;BME280_humidity;BME280_pressure;Samples;Min_cycle;Max_cycle;Signal;HPM_P1;HPM_P2
2023/07/16 00:01:52;;;;;;;0.00;0.00;;;20.10;99.90;;;;;;5045737;28;20177;-65
2023/07/16 00:04:17;;;;;;;0.25;0.25;;;20.20;99.90;;;;;;5050279;28;20177;-65
2023/07/16 00:06:43;;;;;;;0.00;0.00;;;20.30;99.90;;;;;;5050592;28;20215;-65
2023/07/16 00:09:08;;;;;;;0.00;0.00;;;20.40;99.90;;;;;;5050698;28;20240;-66
2023/07/16 00:11:34;;;;;;;0.00;0.00;;;20.40;99.90;;;;;;5053172;28;20184;-66
2023/07/16 00:14:01;;;;;;;0.00;0.00;;;20.50;99.90;;;;;;5053233;28;20181;-65
2023/07/16 00:16:27;;;;;;;0.00;0.00;;;20.60;99.90;;;;;;5054534;28;20193;-65
2023/07/16 00:18:53;;;;;;;0.00;0.00;;;20.60;99.90;;;;;;5054555;28;20201;-65
2023/07/16 00:21:18;;;;;;;0.00;0.00;;;20.60;99.90;;;;;;5054265;28;20660;-66
2023/07/16 00:23:44;;;;;;;0.00;0.00;;;20.60;99.90;;;;;;5054465;28;20181;-65
2023/07/16 00:26:09;;;;;;;0.10;0.10;;;20.40;99.90;;;;;;5054107;28;20205;-65
2023/07/16 00:28:35;;;;;;;0.00;0.00;;;20.40;99.90;;;;;;5054045;28;20901;-65
2023/07/16 00:31:01;;;;;;;0.00;0.00;;;20.30;99.90;;;;;;5053727;28;20189;-65
2023/07/16 00:33:26;;;;;;;0.00;0.00;;;20.10;99.90;;;;;;5052946;28;20205;-65
2023/07/16 00:35:52;;;;;;;0.00;0.00;;;20.10;99.90;;;;;;5054148;28;20213;-65
2023/07/16 00:38:18;;;;;;;0.00;0.00;;;20.10;99.90;;;;;;5053397;28;20204;-65
2023/07/16 00:40:44;;;;;;;0.00;0.00;;;20.00;99.90;;;;;;5052649;28;20587;-65
2023/07/16 00:43:10;;;;;;;0.00;0.00;;;19.80;99.90;;;;;;5053840;28;20268;-65
2023/07/16 00:45:37;;;;;;;0.00;0.00;;;19.70;99.90;;;;;;5052643;28;20185;-65
2023/07/16 00:48:05;;;;;;;0.00;0.00;;;19.50;99.90;;;;;;5053566;28;20182;-65
2023/07/16 00:50:33;;;;;;;0.00;0.00;;;19.40;99.90;;;;;;5053803;28;20216;-65
2023/07/16 00:53:00;;;;;;;0.00;0.00;;;19.20;99.90;;;;;;5053843;28;20187;-65
2023/07/16 00:55:27;;;;;;;0.00;0.00;;;19.20;99.90;;;;;;5053866;28;20200;-65
2023/07/16 00:57:55;;;;;;;0.00;0.00;;;19.10;99.90;;;;;;5053688;28;20276;-65
2023/07/16 01:00:21;;;;;;;0.00;0.00;;;19.00;99.90;;;;;;5053136;28;20720;-65
2023/07/16 01:02:47;;;;;;;0.00;0.00;;;19.00;99.90;;;;;;5053251;28;20284;-63
2023/07/16 01:05:12;;;;;;;0.00;0.00;;;18.90;99.90;;;;;;5050309;28;20179;-64
2023/07/16 01:07:47;;;;;;;0.00;0.00;;;18.90;99.90;;;;;;5051779;28;20189;-65
2023/07/16 01:10:14;;;;;;;0.00;0.00;;;18.80;99.90;;;;;;5052700;28;20217;-65
2023/07/16 01:12:40;;;;;;;0.00;0.00;;;18.80;99.90;;;;;;5053003;28;20181;-65
2023/07/16 01:15:06;;;;;;;0.00;0.00;;;18.70;99.90;;;;;;5052230;28;20188;-65
2023/07/16 01:17:31;;;;;;;0.00;0.00;;;18.70;99.90;;;;;;5053092;28;20322;-65
2023/07/16 01:19:57;;;;;;;0.00;0.00;;;18.70;99.90;;;;;;5052912;28;20716;-64
2023/07/16 01:22:59;;;;;;;0.00;0.00;;;18.60;99.90;;;;;;5052209;28;20196;-65
2023/07/16 01:25:48;;;;;;;0.00;0.00;;;18.60;99.90;;;;;;5044282;28;20563;-65
2023/07/16 01:29:04;;;;;;;0.00;0.00;;;18.50;99.90;;;;;;5052350;28;20221;-64
2023/07/16 01:31:31;;;;;;;0.15;0.15;;;18.50;99.90;;;;;;5029867;28;20236;-64
2023/07/16 01:33:59;;;;;;;0.00;0.00;;;18.40;99.90;;;;;;5047599;28;20190;-64
2023/07/16 01:36:25;;;;;;;0.00;0.00;;;18.40;99.90;;;;;;5044364;28;20203;-64
2023/07/16 01:38:51;;;;;;;0.00;0.00;;;18.40;99.90;;;;;;5049484;28;20189;-64
2023/07/16 01:41:17;;;;;;;0.00;0.00;;;18.40;99.90;;;;;;5049093;28;20266;-64
2023/07/16 01:43:43;;;;;;;0.13;0.13;;;18.40;99.90;;;;;;5052334;28;20181;-64
2023/07/16 01:46:08;;;;;;;0.00;0.00;;;18.40;99.90;;;;;;5052294;28;20227;-64
2023/07/16 01:48:36;;;;;;;0.00;0.00;;;18.40;99.90;;;;;;5052449;28;20216;-65
2023/07/16 01:51:02;;;;;;;0.00;0.00;;;18.30;99.90;;;;;;5051756;28;20200;-64
2023/07/16 01:53:28;;;;;;;0.00;0.00;;;18.30;99.90;;;;;;5052193;28;20289;-65
2023/07/16 01:55:54;;;;;;;0.00;0.00;;;18.30;99.90;;;;;;5052437;28;20182;-64
2023/07/16 01:58:19;;;;;;;0.00;0.00;;;18.30;99.90;;;;;;5051853;28;20181;-64
2023/07/16 02:00:45;;;;;;;0.00;0.00;;;18.30;99.90;;;;;;5052041;28;20513;-65
2023/07/16 02:03:11;;;;;;;0.05;0.05;;;18.30;99.90;;;;;;5051680;28;20632;-65
2023/07/16 02:05:37;;;;;;;0.00;0.00;;;18.30;99.90;;;;;;5052408;28;20272;-65
2023/07/16 02:08:02;;;;;;;0.00;0.00;;;18.30;99.90;;;;;;5052290;28;20185;-65
2023/07/16 02:10:28;;;;;;;0.00;0.00;;;18.30;99.90;;;;;;5051997;28;20240;-64
2023/07/16 02:12:53;;;;;;;0.05;0.05;;;18.30;99.90;;;;;;5051894;28;20567;-64
2023/07/16 02:15:19;;;;;;;0.05;0.05;;;18.30;99.90;;;;;;5050935;28;20322;-65
2023/07/16 02:17:45;;;;;;;0.00;0.00;;;18.30;99.90;;;;;;5051857;28;20254;-65
2023/07/16 02:20:11;;;;;;;0.00;0.00;;;18.30;99.90;;;;;;5052012;28;20174;-65
2023/07/16 02:22:37;;;;;;;0.10;0.10;;;18.30;99.90;;;;;;5051667;28;20663;-65
2023/07/16 02:25:03;;;;;;;0.00;0.00;;;18.30;99.90;;;;;;5050695;28;20182;-65
2023/07/16 02:27:28;;;;;;;0.00;0.00;;;18.20;99.90;;;;;;5051370;28;20602;-65
2023/07/16 02:29:54;;;;;;;0.00;0.00;;;18.20;99.90;;;;;;5050954;28;20253;-65
2023/07/16 02:32:20;;;;;;;0.00;0.00;;;18.20;99.90;;;;;;5051540;28;20177;-65
2023/07/16 02:34:45;;;;;;;0.00;0.00;;;18.20;99.90;;;;;;5049457;28;20182;-65
2023/07/16 02:37:11;;;;;;;0.00;0.00;;;18.20;99.90;;;;;;5050729;28;20181;-65
2023/07/16 02:39:38;;;;;;;0.10;0.10;;;18.10;99.90;;;;;;5051313;28;20185;-65
2023/07/16 02:42:04;;;;;;;0.00;0.00;;;18.10;99.90;;;;;;5051309;28;20174;-65
2023/07/16 02:44:30;;;;;;;0.00;0.00;;;18.10;99.90;;;;;;5050253;28;20201;-65
2023/07/16 02:46:55;;;;;;;0.00;0.00;;;18.10;99.90;;;;;;5051071;28;20657;-65
2023/07/16 02:49:21;;;;;;;0.00;0.00;;;18.10;99.90;;;;;;5050440;28;20216;-65
2023/07/16 02:51:47;;;;;;;0.00;0.00;;;18.00;99.90;;;;;;5051073;28;20184;-65
2023/07/16 02:54:12;;;;;;;0.00;0.00;;;18.00;99.90;;;;;;5051388;28;20176;-65
2023/07/16 02:56:38;;;;;;;0.00;0.00;;;18.00;99.90;;;;;;5050831;28;20181;-65
2023/07/16 02:59:03;;;;;;;0.20;0.20;;;18.00;99.90;;;;;;5050917;28;20231;-65
2023/07/16 03:01:29;;;;;;;0.00;0.00;;;18.00;99.90;;;;;;5050505;28;20213;-65
2023/07/16 03:03:55;;;;;;;0.00;0.00;;;17.90;99.90;;;;;;5051200;28;20684;-65
2023/07/16 03:06:20;;;;;;;0.00;0.00;;;17.90;99.90;;;;;;5049593;28;20181;-64
2023/07/16 03:08:46;;;;;;;0.00;0.00;;;17.90;99.90;;;;;;5050263;28;20608;-64
2023/07/16 03:11:12;;;;;;;0.00;0.00;;;18.00;99.90;;;;;;5050238;28;20196;-65
2023/07/16 03:13:37;;;;;;;0.00;0.00;;;18.00;99.90;;;;;;5050823;28;20632;-65
2023/07/16 03:16:03;;;;;;;0.00;0.00;;;18.00;99.90;;;;;;5051113;28;20775;-64
2023/07/16 03:18:29;;;;;;;0.00;0.00;;;17.90;99.90;;;;;;5050883;28;20238;-65
2023/07/16 03:20:55;;;;;;;0.00;0.00;;;17.90;99.90;;;;;;5050929;28;20264;-65
2023/07/16 03:23:21;;;;;;;0.00;0.00;;;17.90;99.90;;;;;;5049968;28;20605;-65
2023/07/16 03:25:46;;;;;;;0.00;0.00;;;17.90;99.90;;;;;;5050760;28;20185;-65
2023/07/16 03:28:13;;;;;;;0.00;0.00;;;17.80;99.90;;;;;;5050128;28;20696;-65
2023/07/16 03:30:39;;;;;;;0.00;0.00;;;17.80;99.90;;;;;;5050266;28;20254;-65
2023/07/16 03:33:04;;;;;;;0.00;0.00;;;17.80;99.90;;;;;;5050612;28;20174;-65
2023/07/16 03:35:30;;;;;;;0.00;0.00;;;17.80;99.90;;;;;;5050187;28;20861;-65
2023/07/16 03:37:56;;;;;;;0.00;0.00;;;17.80;99.90;;;;;;5050571;28;20324;-65
2023/07/16 03:40:26;;;;;;;0.00;0.00;;;17.80;99.90;;;;;;5050452;28;20181;-65
2023/07/16 03:42:52;;;;;;;0.00;0.00;;;17.80;99.90;;;;;;5050586;28;20186;-65
2023/07/16 03:45:18;;;;;;;0.00;0.00;;;17.80;99.90;;;;;;5049245;28;20204;-65
2023/07/16 03:47:44;;;;;;;0.00;0.00;;;17.80;99.90;;;;;;5054714;28;20179;-65
2023/07/16 03:50:09;;;;;;;0.00;0.00;;;17.80;99.90;;;;;;5053512;28;20212;-65
2023/07/16 03:52:35;;;;;;;0.03;0.03;;;17.80;99.90;;;;;;5054646;28;20181;-65
2023/07/16 03:55:01;;;;;;;0.00;0.00;;;17.80;99.90;;;;;;5054710;28;20178;-65
2023/07/16 03:57:28;;;;;;;0.00;0.00;;;17.80;99.90;;;;;;5053520;28;20522;-65
2023/07/16 03:59:54;;;;;;;0.00;0.00;;;17.80;99.90;;;;;;5054515;28;20200;-65
2023/07/16 04:02:19;;;;;;;0.00;0.00;;;17.70;99.90;;;;;;5053655;28;20560;-65
2023/07/16 04:04:45;;;;;;;0.00;0.00;;;17.70;99.90;;;;;;5054355;28;20772;-65
2023/07/16 04:07:10;;;;;;;0.00;0.00;;;17.70;99.90;;;;;;5053948;28;20677;-64
2023/07/16 04:09:39;;;;;;;0.00;0.00;;;17.70;99.90;;;;;;5053336;28;20266;-65
2023/07/16 04:12:06;;;;;;;0.00;0.00;;;17.70;99.90;;;;;;5053961;28;20185;-64
2023/07/16 04:14:32;;;;;;;0.00;0.00;;;17.70;99.90;;;;;;5052653;28;20184;-65
2023/07/16 04:16:58;;;;;;;0.00;0.00;;;17.70;99.90;;;;;;5053326;28;20177;-65
2023/07/16 04:19:23;;;;;;;0.03;0.03;;;17.70;99.90;;;;;;5053778;28;20197;-65
2023/07/16 04:21:49;;;;;;;0.00;0.00;;;17.70;99.90;;;;;;5053489;28;20170;-65
2023/07/16 04:24:15;;;;;;;0.00;0.00;;;17.70;99.90;;;;;;5053671;28;20184;-65
2023/07/16 04:26:40;;;;;;;0.00;0.00;;;17.70;99.90;;;;;;5053266;28;20189;-65
2023/07/16 04:29:06;;;;;;;0.00;0.00;;;17.70;99.90;;;;;;5053506;28;20707;-66
2023/07/16 04:31:31;;;;;;;0.00;0.00;;;17.70;99.90;;;;;;5052751;28;20178;-65
2023/07/16 04:33:57;;;;;;;0.05;0.05;;;17.70;99.90;;;;;;5053285;28;20707;-65
2023/07/16 04:36:22;;;;;;;0.00;0.00;;;17.70;99.90;;;;;;5053484;28;20182;-65
2023/07/16 04:38:48;;;;;;;0.00;0.00;;;17.70;99.90;;;;;;5052696;28;20184;-65
2023/07/16 04:41:13;;;;;;;0.00;0.00;;;17.80;99.90;;;;;;5053331;28;20247;-64
2023/07/16 04:43:39;;;;;;;0.00;0.00;;;17.80;99.90;;;;;;5052587;28;20177;-65
2023/07/16 04:46:05;;;;;;;0.00;0.00;;;17.80;99.90;;;;;;5053387;28;20820;-65
2023/07/16 04:48:30;;;;;;;0.00;0.00;;;17.80;99.90;;;;;;5052393;28;20189;-64
2023/07/16 04:50:56;;;;;;;0.00;0.00;;;17.80;99.90;;;;;;5053124;28;20181;-65
2023/07/16 04:53:22;;;;;;;0.00;0.00;;;17.80;99.90;;;;;;5052876;28;20224;-64
2023/07/16 04:55:49;;;;;;;0.00;0.00;;;17.80;99.90;;;;;;5052698;28;20192;-65
2023/07/16 04:58:15;;;;;;;0.00;0.00;;;17.80;99.90;;;;;;5051820;28;20649;-65
2023/07/16 05:00:41;;;;;;;0.00;0.00;;;17.80;99.90;;;;;;5052367;28;20281;-65
2023/07/16 05:03:06;;;;;;;0.00;0.00;;;17.80;99.90;;;;;;5053107;28;20185;-65
2023/07/16 05:05:32;;;;;;;0.00;0.00;;;17.80;99.90;;;;;;5052953;28;20575;-65
2023/07/16 05:07:57;;;;;;;0.00;0.00;;;17.80;99.90;;;;;;5052282;28;20185;-64
2023/07/16 05:10:24;;;;;;;0.00;0.00;;;17.90;99.90;;;;;;5052394;28;20209;-65
2023/07/16 05:12:49;;;;;;;0.00;0.00;;;17.90;99.90;;;;;;5053055;28;20186;-65
2023/07/16 05:15:15;;;;;;;0.10;0.10;;;17.90;99.90;;;;;;5052789;28;20691;-65
2023/07/16 05:17:41;;;;;;;0.00;0.00;;;18.00;99.90;;;;;;5052051;28;20660;-65
2023/07/16 05:20:07;;;;;;;0.00;0.00;;;18.00;99.90;;;;;;5052737;28;20590;-65
2023/07/16 05:22:33;;;;;;;0.00;0.00;;;18.00;99.90;;;;;;5051688;28;20521;-65
2023/07/16 05:24:59;;;;;;;0.00;0.00;;;18.10;99.90;;;;;;5052643;28;20192;-65
2023/07/16 05:27:24;;;;;;;0.00;0.00;;;18.20;99.90;;;;;;5052964;28;20636;-63
2023/07/16 05:29:50;;;;;;;0.00;0.00;;;18.30;99.90;;;;;;5052187;28;20225;-64
2023/07/16 05:32:15;;;;;;;0.00;0.00;;;18.40;99.90;;;;;;5052315;28;20700;-63
2023/07/16 05:34:41;;;;;;;0.00;0.00;;;18.60;99.90;;;;;;5052903;28;20170;-62
2023/07/16 05:37:06;;;;;;;0.00;0.00;;;18.60;99.90;;;;;;5052813;28;20169;-63
2023/07/16 05:39:32;;;;;;;0.00;0.00;;;18.70;99.90;;;;;;5051155;28;20181;-63
2023/07/16 05:41:57;;;;;;;0.00;0.00;;;19.00;99.90;;;;;;5052552;28;20185;-63
2023/07/16 05:44:23;;;;;;;0.00;0.00;;;19.20;99.90;;;;;;5052296;28;20683;-63
2023/07/16 05:46:48;;;;;;;0.00;0.00;;;19.40;99.90;;;;;;5052747;28;20170;-62
2023/07/16 05:49:14;;;;;;;0.00;0.00;;;19.50;99.90;;;;;;5052299;28;20213;-62
2023/07/16 05:51:40;;;;;;;0.00;0.00;;;19.60;99.90;;;;;;5052082;28;20188;-62
2023/07/16 05:54:06;;;;;;;0.00;0.00;;;19.70;99.90;;;;;;5051846;28;20178;-62
2023/07/16 05:56:31;;;;;;;0.00;0.00;;;20.00;99.90;;;;;;5052483;28;20578;-61
2023/07/16 05:58:57;;;;;;;0.00;0.00;;;20.00;99.90;;;;;;5052095;28;20239;-63
2023/07/16 06:01:22;;;;;;;0.00;0.00;;;20.00;99.90;;;;;;5050936;28;20652;-63
2023/07/16 06:03:48;;;;;;;0.00;0.00;;;19.90;99.90;;;;;;5051775;28;20192;-63
2023/07/16 06:06:13;;;;;;;0.00;0.00;;;19.80;99.90;;;;;;5052184;28;20242;-62
2023/07/16 06:08:39;;;;;;;0.00;0.00;;;19.70;99.90;;;;;;5051500;28;20268;-63
2023/07/16 06:11:05;;;;;;;0.00;0.00;;;19.60;99.90;;;;;;5051797;28;20229;-63
2023/07/16 06:13:31;;;;;;;0.00;0.00;;;19.60;99.90;;;;;;5050898;28;20275;-63
2023/07/16 06:15:57;;;;;;;0.00;0.00;;;19.70;99.90;;;;;;5057747;28;20184;-63
2023/07/16 06:18:22;;;;;;;0.00;0.00;;;19.70;99.90;;;;;;5068795;28;20180;-63
2023/07/16 06:20:48;;;;;;;0.00;0.00;;;19.70;99.90;;;;;;5065806;28;20656;-63
2023/07/16 06:23:16;;;;;;;0.00;0.00;;;19.70;99.90;;;;;;5051970;28;20572;-63
2023/07/16 06:25:44;;;;;;;0.00;0.00;;;19.70;99.90;;;;;;5051951;28;20555;-63
2023/07/16 06:28:10;;;;;;;0.00;0.00;;;20.00;99.90;;;;;;5051729;28;20248;-63
2023/07/16 06:30:36;;;;;;;0.00;0.00;;;20.20;99.90;;;;;;5052738;28;20217;-63
2023/07/16 06:33:02;;;;;;;0.00;0.00;;;20.30;99.90;;;;;;5051736;28;20166;-61
2023/07/16 06:35:27;;;;;;;0.03;0.03;;;20.10;99.90;;;;;;5051169;28;20548;-62
2023/07/16 06:37:53;;;;;;;0.00;0.00;;;20.10;99.90;;;;;;5050640;28;20174;-62
2023/07/16 06:40:18;;;;;;;0.00;0.00;;;20.10;99.90;;;;;;5049125;28;20666;-62
2023/07/16 06:42:44;;;;;;;0.00;0.00;;;21.00;99.90;;;;;;5050835;28;20472;-62
2023/07/16 06:45:10;;;;;;;0.63;0.10;;;22.00;99.90;;;;;;5051663;28;20231;-62
2023/07/16 06:47:35;;;;;;;0.00;0.00;;;22.90;99.90;;;;;;5050219;28;20181;-63
2023/07/16 06:50:01;;;;;;;0.00;0.00;;;23.80;99.90;;;;;;5050204;28;20221;-62
2023/07/16 06:52:27;;;;;;;0.00;0.00;;;24.00;99.90;;;;;;5051446;28;20178;-63
2023/07/16 06:54:56;;;;;;;0.10;0.10;;;24.70;99.90;;;;;;5051468;28;20191;-63
2023/07/16 06:57:22;;;;;;;0.00;0.00;;;25.40;97.60;;;;;;5051270;28;20219;-62
2023/07/16 06:59:48;;;;;;;0.00;0.00;;;25.50;96.40;;;;;;5051459;28;20204;-62
2023/07/16 07:02:15;;;;;;;0.00;0.00;;;25.40;95.80;;;;;;5051216;28;20633;-62
2023/07/16 07:04:41;;;;;;;0.00;0.00;;;25.70;95.10;;;;;;5051178;28;20177;-62
2023/07/16 07:07:06;;;;;;;0.00;0.00;;;25.70;93.80;;;;;;5051382;28;20224;-62
2023/07/16 07:09:32;;;;;;;0.00;0.00;;;25.20;94.40;;;;;;5051085;28;20212;-62
2023/07/16 07:11:57;;;;;;;0.00;0.00;;;25.30;95.00;;;;;;5051103;28;20174;-62
2023/07/16 07:14:23;;;;;;;0.00;0.00;;;25.60;94.10;;;;;;5051173;28;20173;-62
2023/07/16 07:16:48;;;;;;;0.00;0.00;;;25.80;93.10;;;;;;5051147;28;20207;-63
2023/07/16 07:19:14;;;;;;;0.00;0.00;;;26.20;93.40;;;;;;5050934;28;20181;-62
2023/07/16 07:21:39;;;;;;;0.00;0.00;;;26.00;91.40;;;;;;5050373;28;20180;-62
2023/07/16 07:24:05;;;;;;;0.00;0.00;;;26.20;91.30;;;;;;5050948;28;20185;-62
2023/07/16 07:26:30;;;;;;;0.00;0.00;;;26.20;90.70;;;;;;5050963;28;20259;-62
2023/07/16 07:28:56;;;;;;;0.00;0.00;;;26.20;90.60;;;;;;5050597;28;20635;-62
2023/07/16 07:31:21;;;;;;;0.00;0.00;;;26.20;90.30;;;;;;5050681;28;20173;-62
2023/07/16 07:33:47;;;;;;;0.00;0.00;;;26.00;90.60;;;;;;5050718;28;20177;-62
2023/07/16 07:36:12;;;;;;;0.00;0.00;;;25.30;90.40;;;;;;5050846;28;20641;-62
2023/07/16 07:38:38;;;;;;;0.00;0.00;;;25.00;91.60;;;;;;5050504;28;20181;-62
2023/07/16 07:41:05;;;;;;;0.00;0.00;;;24.40;92.40;;;;;;5050737;28;20200;-62
2023/07/16 07:43:31;;;;;;;0.00;0.00;;;24.20;93.30;;;;;;5050700;28;20227;-62
2023/07/16 07:45:56;;;;;;;0.00;0.00;;;23.80;93.40;;;;;;5050647;28;20173;-62
2023/07/16 07:48:22;;;;;;;0.00;0.00;;;23.70;93.80;;;;;;5050282;28;20177;-62
2023/07/16 07:50:47;;;;;;;0.00;0.00;;;23.30;94.70;;;;;;5050696;28;20214;-62
2023/07/16 07:53:14;;;;;;;0.00;0.00;;;23.10;94.60;;;;;;5050784;28;20177;-62
2023/07/16 07:55:40;;;;;;;0.00;0.00;;;22.70;94.90;;;;;;5050612;28;20732;-62
2023/07/16 07:58:07;;;;;;;0.00;0.00;;;22.60;95.60;;;;;;5050717;28;20177;-62
2023/07/16 08:00:33;;;;;;;0.00;0.00;;;22.60;95.50;;;;;;5050668;28;20223;-62
2023/07/16 08:02:58;;;;;;;0.00;0.00;;;22.50;95.70;;;;;;5049209;28;20575;-62
2023/07/16 08:05:24;;;;;;;0.00;0.00;;;22.40;96.20;;;;;;5050571;28;20224;-62
2023/07/16 08:07:50;;;;;;;0.00;0.00;;;22.10;96.30;;;;;;5050652;28;20188;-62
2023/07/16 08:10:15;;;;;;;0.00;0.00;;;22.10;97.10;;;;;;5050384;28;20263;-62
2023/07/16 08:12:41;;;;;;;0.00;0.00;;;22.10;97.10;;;;;;5050419;28;20207;-62
2023/07/16 08:15:07;;;;;;;0.00;0.00;;;22.10;97.70;;;;;;5050547;28;20181;-62
2023/07/16 08:17:33;;;;;;;0.00;0.00;;;22.10;97.20;;;;;;5050388;28;20188;-62
2023/07/16 08:19:59;;;;;;;0.00;0.00;;;22.10;96.90;;;;;;5050479;28;20181;-62
2023/07/16 08:22:24;;;;;;;0.00;0.00;;;22.40;96.80;;;;;;5050347;28;20201;-62
2023/07/16 08:24:51;;;;;;;0.00;0.00;;;22.90;96.10;;;;;;5050549;28;20181;-62
2023/07/16 08:27:18;;;;;;;0.00;0.00;;;23.20;95.90;;;;;;5050358;28;20196;-62
2023/07/16 08:29:44;;;;;;;0.00;0.00;;;24.10;96.50;;;;;;5050182;28;20229;-62
2023/07/16 08:32:09;;;;;;;0.00;0.00;;;25.00;94.40;;;;;;5052210;28;20821;-62
2023/07/16 08:34:35;;;;;;;0.00;0.00;;;25.20;92.20;;;;;;5054138;28;20581;-62
2023/07/16 08:37:00;;;;;;;0.00;0.00;;;24.90;92.30;;;;;;5054059;28;20188;-62
2023/07/16 08:39:26;;;;;;;0.00;0.00;;;24.60;91.60;;;;;;5054025;28;20223;-62
2023/07/16 08:41:52;;;;;;;0.05;0.05;;;24.50;92.50;;;;;;5053953;28;20270;-62
2023/07/16 08:44:18;;;;;;;0.00;0.00;;;24.50;92.80;;;;;;5052623;28;20247;-62
2023/07/16 08:46:44;;;;;;;0.00;0.00;;;24.50;92.70;;;;;;5053999;28;20188;-62
2023/07/16 08:49:11;;;;;;;0.00;0.00;;;25.00;92.80;;;;;;5053544;28;20212;-62
2023/07/16 08:51:38;;;;;;;0.00;0.00;;;25.60;91.80;;;;;;5053716;28;20808;-62
2023/07/16 08:54:04;;;;;;;0.00;0.00;;;26.30;90.80;;;;;;5053764;28;20177;-62
2023/07/16 08:56:29;;;;;;;0.00;0.00;;;26.70;88.90;;;;;;5052357;28;20331;-62
2023/07/16 08:58:56;;;;;;;0.00;0.00;;;26.90;87.60;;;;;;5053815;28;20166;-62
2023/07/16 09:01:21;;;;;;;0.00;0.00;;;26.80;85.00;;;;;;5053482;28;20256;-62
2023/07/16 09:03:47;;;;;;;0.00;0.00;;;27.10;85.50;;;;;;5053622;28;20692;-62
2023/07/16 09:06:13;;;;;;;0.00;0.00;;;27.40;84.60;;;;;;5053316;28;20185;-62
2023/07/16 09:08:39;;;;;;;0.00;0.00;;;27.40;84.00;;;;;;5053521;28;20181;-62
2023/07/16 09:11:04;;;;;;;0.00;0.00;;;27.40;83.70;;;;;;5053419;28;20645;-62
2023/07/16 09:13:30;;;;;;;0.00;0.00;;;27.40;83.40;;;;;;5053357;28;20181;-62
2023/07/16 09:15:57;;;;;;;0.00;0.00;;;27.40;84.60;;;;;;5052183;28;20181;-62
2023/07/16 09:18:25;;;;;;;0.00;0.00;;;27.60;84.20;;;;;;5053196;28;20177;-62
2023/07/16 09:20:58;;;;;;;0.00;0.00;;;27.70;79.60;;;;;;5053547;28;20190;-62
2023/07/16 09:23:25;;;;;;;0.00;0.00;;;27.60;77.70;;;;;;5053148;28;20204;-62
2023/07/16 09:25:51;;;;;;;0.00;0.00;;;27.20;78.20;;;;;;5053468;28;20227;-62
2023/07/16 09:28:18;;;;;;;0.00;0.00;;;26.90;78.10;;;;;;5051704;28;20233;-62
2023/07/16 09:30:44;;;;;;;0.00;0.00;;;26.50;78.90;;;;;;5053261;28;20228;-62
2023/07/16 09:33:14;;;;;;;0.00;0.00;;;26.20;80.10;;;;;;5053300;28;20170;-62
2023/07/16 09:35:40;;;;;;;0.00;0.00;;;26.10;81.10;;;;;;5053088;28;20170;-62
2023/07/16 09:38:08;;;;;;;0.00;0.00;;;25.70;82.20;;;;;;5053179;28;20180;-62
2023/07/16 09:40:35;;;;;;;0.00;0.00;;;25.60;83.40;;;;;;5052861;28;20189;-62
2023/07/16 09:43:01;;;;;;;0.00;0.00;;;25.90;86.40;;;;;;5035966;28;20205;-62
2023/07/16 09:45:27;;;;;;;0.00;0.00;;;26.00;87.30;;;;;;5032866;28;20181;-62
2023/07/16 09:47:53;;;;;;;0.00;0.00;;;25.90;85.00;;;;;;5044818;28;20669;-62
2023/07/16 09:50:19;;;;;;;0.00;0.00;;;26.00;86.60;;;;;;5052503;28;20217;-62
2023/07/16 09:52:46;;;;;;;0.00;0.00;;;26.20;86.20;;;;;;5052790;28;20180;-62
2023/07/16 09:55:14;;;;;;;0.00;0.00;;;26.20;85.00;;;;;;5052669;28;20177;-62
2023/07/16 09:57:44;;;;;;;0.00;0.00;;;26.10;85.90;;;;;;5052716;28;20258;-62
2023/07/16 10:00:12;;;;;;;0.00;0.00;;;25.90;85.60;;;;;;5052700;28;20544;-62
2023/07/16 10:02:38;;;;;;;0.00;0.00;;;26.20;88.10;;;;;;5052528;28;20284;-62
2023/07/16 10:05:24;;;;;;;0.00;0.00;;;26.70;86.70;;;;;;5052663;28;20186;-62
2023/07/16 10:07:52;;;;;;;0.00;0.00;;;27.20;85.30;;;;;;5052397;28;20180;-62
2023/07/16 10:10:18;;;;;;;0.00;0.00;;;27.50;82.00;;;;;;5052294;28;20221;-62
2023/07/16 10:12:56;;;;;;;0.00;0.00;;;27.80;80.50;;;;;;5052613;28;20181;-62
2023/07/16 10:15:29;;;;;;;0.00;0.00;;;27.40;78.30;;;;;;5052519;28;20173;-62
2023/07/16 10:17:55;;;;;;;0.00;0.00;;;27.40;81.20;;;;;;5052614;28;20644;-62
2023/07/16 10:20:32;;;;;;;0.00;0.00;;;27.50;79.50;;;;;;5052295;28;20880;-62
2023/07/16 10:22:58;;;;;;;0.00;0.00;;;27.40;77.60;;;;;;5052337;28;20181;-62
2023/07/16 10:25:27;;;;;;;0.00;0.00;;;27.30;77.60;;;;;;5051105;28;20184;-62
2023/07/16 10:27:54;;;;;;;0.00;0.00;;;27.30;78.80;;;;;;5052111;28;20200;-62
2023/07/16 10:30:20;;;;;;;0.00;0.00;;;27.70;79.00;;;;;;5052147;28;20213;-62
2023/07/16 10:32:46;;;;;;;0.00;0.00;;;27.60;77.50;;;;;;5052229;28;20269;-62
2023/07/16 10:35:12;;;;;;;0.00;0.00;;;27.50;77.40;;;;;;5052269;28;20181;-62
2023/07/16 10:37:39;;;;;;;0.00;0.00;;;27.40;77.40;;;;;;5051876;28;20205;-62
2023/07/16 10:40:07;;;;;;;0.08;0.08;;;27.00;77.40;;;;;;5052011;28;20228;-62
2023/07/16 10:42:32;;;;;;;0.00;0.00;;;26.70;79.20;;;;;;5051890;28;20186;-62
2023/07/16 10:45:03;;;;;;;0.00;0.00;;;26.60;81.30;;;;;;5051829;28;20230;-62
2023/07/16 10:47:36;;;;;;;0.08;0.08;;;26.90;79.00;;;;;;5051578;28;20188;-62
2023/07/16 10:50:09;;;;;;;0.00;0.00;;;27.00;77.80;;;;;;5051767;28;20209;-62
2023/07/16 10:52:36;;;;;;;0.00;0.00;;;26.90;78.90;;;;;;5051725;28;20169;-62
2023/07/16 10:55:02;;;;;;;0.00;0.00;;;27.30;77.90;;;;;;5050864;28;20669;-62
2023/07/16 10:57:28;;;;;;;0.00;0.00;;;27.60;75.50;;;;;;5051593;28;20230;-62
2023/07/16 10:59:56;;;;;;;0.00;0.00;;;27.80;74.60;;;;;;5051558;28;20649;-62
2023/07/16 11:02:23;;;;;;;0.00;0.00;;;27.90;74.00;;;;;;5051286;28;20640;-62
2023/07/16 11:04:52;;;;;;;0.00;0.00;;;28.00;71.90;;;;;;5051329;28;20540;-62
2023/07/16 11:07:18;;;;;;;0.00;0.00;;;28.10;72.00;;;;;;5051236;28;20572;-62
2023/07/16 11:09:46;;;;;;;0.00;0.00;;;28.20;71.70;;;;;;5051386;28;20217;-62
2023/07/16 11:12:13;;;;;;;0.00;0.00;;;28.20;73.80;;;;;;5051448;28;20205;-62
2023/07/16 11:14:46;;;;;;;0.00;0.00;;;28.40;72.20;;;;;;5051461;28;20185;-62
2023/07/16 11:17:13;;;;;;;0.00;0.00;;;28.40;70.90;;;;;;5051561;28;20173;-62
2023/07/16 11:19:39;;;;;;;0.00;0.00;;;28.50;70.20;;;;;;5049992;28;20238;-63
2023/07/16 11:22:07;;;;;;;0.00;0.00;;;28.30;69.20;;;;;;5051498;28;20261;-62
2023/07/16 11:24:40;;;;;;;0.20;0.20;;;27.90;69.90;;;;;;5051317;28;20264;-63
2023/07/16 11:27:14;;;;;;;0.00;0.00;;;27.90;69.40;;;;;;5051371;28;20174;-63
2023/07/16 11:29:41;;;;;;;0.00;0.00;;;27.80;71.70;;;;;;5051053;28;20573;-63
2023/07/16 11:32:07;;;;;;;2.17;0.98;;;27.80;71.70;;;;;;5050124;28;20166;-63
2023/07/16 11:34:33;;;;;;;0.00;0.00;;;27.90;72.50;;;;;;5049700;28;20524;-61
2023/07/16 11:37:16;;;;;;;0.00;0.00;;;28.20;71.70;;;;;;5050377;28;20181;-64
2023/07/16 11:39:42;;;;;;;0.00;0.00;;;28.60;70.00;;;;;;5036532;28;20223;-63
2023/07/16 11:42:08;;;;;;;0.00;0.00;;;28.70;68.40;;;;;;5049984;28;20182;-62
2023/07/16 11:44:34;;;;;;;0.00;0.00;;;28.80;67.80;;;;;;5050588;28;20537;-62
2023/07/16 11:47:00;;;;;;;0.00;0.00;;;28.00;67.00;;;;;;5050222;28;20251;-62
2023/07/16 11:49:26;;;;;;;0.00;0.00;;;27.70;66.80;;;;;;5050156;28;20646;-63
2023/07/16 11:51:51;;;;;;;0.30;0.30;;;27.80;68.90;;;;;;5050601;28;20181;-61
2023/07/16 11:54:17;;;;;;;0.00;0.00;;;28.00;68.70;;;;;;5050881;28;20272;-62
2023/07/16 11:56:43;;;;;;;0.00;0.00;;;28.20;67.50;;;;;;5050267;28;20185;-62
2023/07/16 11:59:08;;;;;;;0.00;0.00;;;28.30;66.80;;;;;;5050130;28;20262;-61
2023/07/16 12:01:34;;;;;;;0.00;0.00;;;28.30;67.20;;;;;;5050433;28;20181;-61
2023/07/16 12:03:59;;;;;;;3.63;0.55;;;28.10;66.10;;;;;;5048979;28;20177;-62
2023/07/16 12:06:25;;;;;;;0.00;0.00;;;28.00;67.00;;;;;;5050042;28;20178;-61
2023/07/16 12:08:50;;;;;;;0.00;0.00;;;28.10;67.00;;;;;;5054428;28;20178;-61
2023/07/16 12:11:16;;;;;;;0.00;0.00;;;28.00;66.50;;;;;;5053793;28;20177;-61
2023/07/16 12:13:41;;;;;;;0.08;0.08;;;28.00;66.20;;;;;;5054268;28;20547;-61
2023/07/16 12:16:07;;;;;;;0.00;0.00;;;27.90;66.60;;;;;;5053936;28;20292;-61
2023/07/16 12:18:32;;;;;;;0.00;0.00;;;28.00;66.70;;;;;;5054174;28;20213;-62
2023/07/16 12:20:58;;;;;;;0.00;0.00;;;28.10;65.50;;;;;;5054503;28;20178;-62
2023/07/16 12:23:24;;;;;;;0.10;0.10;;;28.10;64.60;;;;;;5052922;28;20397;-62
2023/07/16 12:25:50;;;;;;;0.00;0.00;;;28.10;65.10;;;;;;5052782;28;20174;-61
2023/07/16 12:28:15;;;;;;;0.10;0.10;;;28.10;64.30;;;;;;5053387;28;20221;-62
2023/07/16 12:30:41;;;;;;;0.00;0.00;;;28.20;64.40;;;;;;5054225;28;20236;-62
2023/07/16 12:33:07;;;;;;;0.00;0.00;;;28.40;66.20;;;;;;5054097;28;20667;-61
2023/07/16 12:35:32;;;;;;;0.00;0.00;;;28.60;63.70;;;;;;5053918;28;20232;-62
2023/07/16 12:37:58;;;;;;;0.00;0.00;;;28.40;64.10;;;;;;5054136;28;20181;-62
2023/07/16 12:40:25;;;;;;;0.00;0.00;;;28.30;64.80;;;;;;5053985;28;20273;-62
2023/07/16 12:42:51;;;;;;;0.00;0.00;;;28.30;63.70;;;;;;5049207;28;20656;-62
2023/07/16 12:45:16;;;;;;;0.00;0.00;;;28.40;63.60;;;;;;5052474;28;20236;-62